Time;durP1;ratioP1;P1;durP2;ratioP2;P2;SDS_P1;SDS_P2;PMS_P1;PMS_P2;Temp;Humidity;BMP_temperature;BMP_pressure;BME280_temperature;BME280_humidity;BME280_pressure;Samples;Min_cycle;Max_cycle;Signal;HPM_P1;HPM_P2
2023/01/09 00:02:05;;;;;;;;;;;21.30;40.30;;;;;;5036970;28;20015;-70
2023/01/09 00:04:32;;;;;;;;;;;21.30;40.30;;;;;;5036969;28;20361;-70
2023/01/09 00:06:59;;;;;;;;;;;21.30;40.30;;;;;;5036809;28;19921;-70
2023/01/09 00:09:26;;;;;;;;;;;21.30;40.30;;;;;;5036605;28;20339;-70
2023/01/09 00:11:53;;;;;;;;;;;21.30;40.30;;;;;;5036740;28;19987;-70
2023/01/09 00:14:21;;;;;;;;;;;21.30;40.30;;;;;;5036831;28;19943;-70
2023/01/09 00:16:48;;;;;;;;;;;21.30;40.30;;;;;;5036077;28;19975;-70
2023/01/09 00:19:15;;;;;;;;;;;21.30;40.30;;;;;;5036661;28;20004;-70
2023/01/09 00:21:42;;;;;;;;;;;21.30;40.30;;;;;;5036662;28;19921;-70
2023/01/09 00:24:09;;;;;;;;;;;21.30;40.30;;;;;;5036227;28;19921;-70
2023/01/09 00:26:36;;;;;;;;;;;21.30;40.30;;;;;;5036471;28;20012;-70
2023/01/09 00:29:03;;;;;;;;;;;21.30;40.30;;;;;;5036246;28;19928;-70
2023/01/09 00:31:30;;;;;;;;;;;21.30;40.30;;;;;;5036139;28;19951;-70
2023/01/09 00:33:59;;;;;;;;;;;21.30;40.30;;;;;;5036478;28;19920;-70
2023/01/09 00:36:26;;;;;;;;;;;21.30;40.30;;;;;;5036180;28;19928;-70
2023/01/09 00:38:53;;;;;;;;;;;21.30;40.30;;;;;;5019066;28;19968;-70
2023/01/09 00:41:29;;;;;;;;;;;21.30;40.30;;;;;;5036299;28;19920;-70
2023/01/09 00:43:57;;;;;;;;;;;21.30;40.30;;;;;;5039153;28;20024;-71
2023/01/09 00:46:28;;;;;;;;;;;21.30;40.30;;;;;;5039593;28;19964;-70
2023/01/09 00:48:55;;;;;;;;;;;21.30;40.30;;;;;;5039825;28;20382;-70
2023/01/09 00:51:22;;;;;;;;;;;21.30;40.30;;;;;;5040166;28;19959;-70
2023/01/09 00:53:49;;;;;;;;;;;21.30;40.30;;;;;;5039414;28;19927;-69
2023/01/09 00:56:19;;;;;;;;;;;21.30;40.40;;;;;;5039401;28;19921;-69
2023/01/09 00:58:47;;;;;;;;;;;21.30;40.40;;;;;;5040082;28;19964;-69
2023/01/09 01:01:14;;;;;;;;;;;21.30;40.40;;;;;;5038956;28;20368;-69
2023/01/09 01:03:41;;;;;;;;;;;21.20;40.30;;;;;;5039636;28;20365;-69
2023/01/09 01:08:55;;;;;;;;;;;21.30;40.40;;;;;;5039026;28;20023;-70
2023/01/09 01:11:22;;;;;;;;;;;21.30;40.40;;;;;;5039282;28;20369;-69
2023/01/09 01:13:49;;;;;;;;;;;21.30;40.40;;;;;;5038761;28;19920;-70
2023/01/09 01:16:17;;;;;;;;;;;21.20;40.30;;;;;;5038863;28;19968;-69
2023/01/09 01:18:44;;;;;;;;;;;21.30;40.40;;;;;;5021615;28;20293;-70
2023/01/09 01:21:12;;;;;;;;;;;21.30;41.00;;;;;;5039215;28;20432;-70
2023/01/09 01:23:39;;;;;;;;;;;21.20;40.30;;;;;;5022147;28;19921;-70
2023/01/09 01:26:07;;;;;;;;;;;21.20;40.40;;;;;;5038506;28;19921;-69
2023/01/09 01:28:34;;;;;;;;;;;21.20;40.40;;;;;;5038392;28;19925;-70
2023/01/09 01:31:01;;;;;;;;;;;21.20;40.40;;;;;;5038971;28;20056;-69
2023/01/09 01:33:28;;;;;;;;;;;21.20;40.40;;;;;;5038555;28;20284;-69
2023/01/09 01:36:03;;;;;;;;;;;21.20;40.40;;;;;;5038932;28;19924;-70
2023/01/09 01:38:30;;;;;;;;;;;21.20;40.40;;;;;;5038914;28;20012;-70
2023/01/09 01:40:57;;;;;;;;;;;21.20;40.40;;;;;;5038825;28;20380;-70
2023/01/09 01:43:25;;;;;;;;;;;21.20;40.40;;;;;;5038579;28;20262;-70
2023/01/09 01:45:52;;;;;;;;;;;21.20;40.40;;;;;;5038187;28;19928;-70
2023/01/09 01:48:26;;;;;;;;;;;21.20;40.40;;;;;;5038730;28;19921;-70
2023/01/09 01:50:58;;;;;;;;;;;21.30;40.50;;;;;;5038283;28;20016;-70
2023/01/09 01:53:27;;;;;;;;;;;21.30;40.50;;;;;;5038599;28;19983;-69
2023/01/09 01:56:09;;;;;;;;;;;21.20;40.40;;;;;;5020811;28;19927;-70
2023/01/09 01:58:40;;;;;;;;;;;21.20;40.40;;;;;;5038517;28;19935;-70
2023/01/09 02:01:07;;;;;;;;;;;21.30;40.50;;;;;;5038318;28;19976;-69
2023/01/09 02:03:36;;;;;;;;;;;21.30;40.50;;;;;;5038827;28;19925;-70
2023/01/09 02:06:03;;;;;;;;;;;21.30;40.50;;;;;;5038298;28;19925;-65
2023/01/09 02:08:31;;;;;;;;;;;21.30;40.50;;;;;;5038442;28;19928;-65
2023/01/09 02:10:58;;;;;;;;;;;21.30;40.50;;;;;;5037877;28;19927;-70
2023/01/09 02:13:25;;;;;;;;;;;21.20;40.40;;;;;;5038235;28;19921;-70
2023/01/09 02:16:12;;;;;;;;;;;21.30;40.70;;;;;;5020244;28;19999;-65
2023/01/09 02:18:45;;;;;;;;;;;21.30;40.40;;;;;;5023522;28;19921;-70
2023/01/09 02:21:16;;;;;;;;;;;21.30;40.40;;;;;;5037633;28;20016;-70
2023/01/09 02:23:53;;;;;;;;;;;21.30;40.40;;;;;;5038362;28;19956;-70
2023/01/09 02:26:39;;;;;;;;;;;21.30;40.50;;;;;;5037837;28;20344;-70
2023/01/09 02:29:23;;;;;;;;;;;21.30;40.40;;;;;;5037501;28;19981;-67
2023/01/09 02:32:08;;;;;;;;;;;21.20;40.40;;;;;;5037872;28;20027;-66
2023/01/09 02:34:43;;;;;;;;;;;21.30;40.40;;;;;;5038193;28;19964;-70
2023/01/09 02:37:19;;;;;;;;;;;21.30;40.40;;;;;;5037809;28;19943;-70
2023/01/09 02:39:50;;;;;;;;;;;21.20;40.40;;;;;;5037638;28;20015;-70
2023/01/09 02:42:21;;;;;;;;;;;21.20;40.40;;;;;;5037633;28;19921;-70
2023/01/09 02:44:48;;;;;;;;;;;21.20;40.40;;;;;;5038076;28;20361;-70
2023/01/09 02:47:35;;;;;;;;;;;21.20;40.40;;;;;;5037551;28;19964;-70
2023/01/09 02:50:04;;;;;;;;;;;21.20;40.40;;;;;;5022780;28;19925;-70
2023/01/09 02:52:40;;;;;;;;;;;21.20;40.40;;;;;;5037669;28;19921;-70
2023/01/09 02:55:27;;;;;;;;;;;21.20;40.40;;;;;;5037367;28;20349;-70
2023/01/09 02:58:13;;;;;;;;;;;21.20;40.40;;;;;;5017123;28;20012;-70
2023/01/09 03:01:00;;;;;;;;;;;21.30;40.50;;;;;;5002700;28;19932;-71
2023/01/09 03:03:36;;;;;;;;;;;21.20;40.40;;;;;;5019911;28;19921;-71
2023/01/09 03:06:17;;;;;;;;;;;21.20;40.40;;;;;;5016866;28;20449;-71
2023/01/09 03:08:51;;;;;;;;;;;21.20;40.40;;;;;;5017843;28;20016;-71
2023/01/09 03:11:20;;;;;;;;;;;21.20;40.40;;;;;;5024952;28;19971;-71
2023/01/09 03:13:50;;;;;;;;;;;21.20;40.40;;;;;;5037082;28;19982;-71
2023/01/09 03:16:19;;;;;;;;;;;21.20;40.50;;;;;;5037419;28;19979;-71
2023/01/09 03:18:47;;;;;;;;;;;21.20;40.50;;;;;;5043737;28;19921;-70
2023/01/09 03:21:15;;;;;;;;;;;21.20;40.50;;;;;;5041675;28;19921;-70
2023/01/09 03:23:52;;;;;;;;;;;21.20;40.50;;;;;;5037240;28;19979;-70
2023/01/09 03:26:20;;;;;;;;;;;21.20;40.50;;;;;;5044216;28;19925;-70
2023/01/09 03:28:47;;;;;;;;;;;21.20;40.50;;;;;;5044588;28;20357;-70
2023/01/09 03:31:14;;;;;;;;;;;21.20;40.50;;;;;;5047911;28;19921;-70
2023/01/09 03:33:41;;;;;;;;;;;21.20;40.50;;;;;;5057122;28;20276;-70
2023/01/09 03:36:09;;;;;;;;;;;21.20;40.50;;;;;;5053612;28;19921;-70
2023/01/09 03:38:36;;;;;;;;;;;21.20;40.50;;;;;;5045102;28;20440;-70
2023/01/09 03:41:04;;;;;;;;;;;21.20;40.50;;;;;;5037120;28;19921;-70
2023/01/09 03:43:31;;;;;;;;;;;21.20;40.50;;;;;;5048974;28;19921;-70
2023/01/09 03:45:58;;;;;;;;;;;21.10;40.50;;;;;;5036857;28;19975;-70
2023/01/09 03:48:25;;;;;;;;;;;21.20;40.60;;;;;;5043060;28;20031;-70
2023/01/09 03:50:52;;;;;;;;;;;21.20;40.60;;;;;;5036461;28;19925;-70
2023/01/09 03:53:20;;;;;;;;;;;21.20;40.60;;;;;;5040019;28;20007;-69
2023/01/09 03:55:49;;;;;;;;;;;21.10;40.50;;;;;;5049294;28;19956;-70
2023/01/09 03:58:16;;;;;;;;;;;21.10;40.50;;;;;;5042030;28;19925;-70
2023/01/09 04:00:48;;;;;;;;;;;21.10;40.50;;;;;;5051690;28;19956;-70
2023/01/09 04:03:16;;;;;;;;;;;21.10;40.50;;;;;;5036290;28;20012;-70
2023/01/09 04:05:44;;;;;;;;;;;21.10;40.50;;;;;;5036460;28;20361;-70
2023/01/09 04:08:11;;;;;;;;;;;21.10;40.50;;;;;;5042738;28;20007;-70
2023/01/09 04:10:38;;;;;;;;;;;21.10;40.50;;;;;;5043081;28;19921;-69
2023/01/09 04:13:05;;;;;;;;;;;21.10;40.60;;;;;;5036397;28;19929;-70
2023/01/09 04:15:32;;;;;;;;;;;21.10;40.60;;;;;;5040573;28;20372;-70
2023/01/09 04:17:59;;;;;;;;;;;21.20;40.60;;;;;;5057696;28;19928;-70
2023/01/09 04:20:27;;;;;;;;;;;21.20;40.60;;;;;;5060407;28;19979;-70
2023/01/09 04:22:54;;;;;;;;;;;21.20;40.60;;;;;;5059232;28;19921;-70
2023/01/09 04:25:24;;;;;;;;;;;21.10;40.60;;;;;;5060356;28;20011;-70
2023/01/09 04:27:51;;;;;;;;;;;21.20;40.60;;;;;;5059660;28;19924;-70
2023/01/09 04:30:18;;;;;;;;;;;21.10;40.60;;;;;;5059007;28;19924;-69
2023/01/09 04:32:45;;;;;;;;;;;21.10;40.60;;;;;;5059642;28;19990;-70
2023/01/09 04:35:12;;;;;;;;;;;21.20;40.70;;;;;;5059254;28;19974;-70
2023/01/09 04:37:39;;;;;;;;;;;21.20;40.60;;;;;;5059294;28;20015;-70
2023/01/09 04:40:10;;;;;;;;;;;21.10;40.60;;;;;;5060011;28;20020;-69
2023/01/09 04:42:38;;;;;;;;;;;21.20;40.60;;;;;;5052718;28;19951;-69
2023/01/09 04:45:06;;;;;;;;;;;21.20;40.60;;;;;;5025262;28;19932;-70
2023/01/09 04:47:33;;;;;;;;;;;21.20;40.60;;;;;;5059934;28;19984;-70
2023/01/09 04:50:00;;;;;;;;;;;21.20;40.60;;;;;;5053952;28;19925;-70
2023/01/09 04:52:27;;;;;;;;;;;21.20;40.60;;;;;;5049846;28;19920;-69
2023/01/09 04:54:54;;;;;;;;;;;21.20;40.60;;;;;;5038812;28;20016;-70
2023/01/09 04:57:21;;;;;;;;;;;21.20;40.60;;;;;;5033301;28;19936;-65
2023/01/09 04:59:48;;;;;;;;;;;21.10;40.50;;;;;;5019902;28;19925;-70
2023/01/09 05:02:15;;;;;;;;;;;21.20;40.60;;;;;;5019550;28;19921;-70
2023/01/09 05:04:42;;;;;;;;;;;21.10;40.50;;;;;;5031300;28;20416;-70
2023/01/09 05:07:09;;;;;;;;;;;21.10;40.50;;;;;;5019714;28;19921;-70
2023/01/09 05:09:36;;;;;;;;;;;21.10;40.60;;;;;;5019585;28;19925;-70
2023/01/09 05:12:03;;;;;;;;;;;21.10;40.50;;;;;;5019920;28;20325;-70
2023/01/09 05:14:30;;;;;;;;;;;21.10;40.50;;;;;;5018691;28;19928;-70
2023/01/09 05:16:57;;;;;;;;;;;21.10;40.50;;;;;;5019749;28;20025;-70
2023/01/09 05:19:24;;;;;;;;;;;21.10;40.60;;;;;;5037147;28;19979;-70
2023/01/09 05:21:51;;;;;;;;;;;21.10;40.50;;;;;;5049340;28;19920;-70
2023/01/09 05:24:18;;;;;;;;;;;21.10;40.60;;;;;;5059007;28;20016;-70
2023/01/09 05:26:45;;;;;;;;;;;21.10;40.60;;;;;;5058485;28;19967;-70
2023/01/09 05:29:12;;;;;;;;;;;21.10;40.50;;;;;;5039269;28;20028;-69
2023/01/09 05:31:39;;;;;;;;;;;21.10;40.60;;;;;;5042990;28;20475;-69
2023/01/09 05:34:06;;;;;;;;;;;21.10;40.60;;;;;;5039172;28;19948;-70
2023/01/09 05:36:33;;;;;;;;;;;21.10;40.60;;;;;;5049838;28;20396;-69
2023/01/09 05:39:01;;;;;;;;;;;21.10;40.50;;;;;;5019664;28;19922;-69
2023/01/09 05:41:28;;;;;;;;;;;21.10;40.50;;;;;;5056775;28;19921;-69
2023/01/09 05:43:55;;;;;;;;;;;21.10;40.40;;;;;;5056222;28;19996;-69
2023/01/09 05:46:22;;;;;;;;;;;21.10;40.40;;;;;;5048895;28;19927;-70
2023/01/09 05:48:49;;;;;;;;;;;21.10;40.40;;;;;;5045635;28;20015;-70
2023/01/09 05:51:16;;;;;;;;;;;21.10;40.40;;;;;;5044834;28;20035;-66
2023/01/09 05:53:43;;;;;;;;;;;21.10;40.40;;;;;;5033951;28;20016;-69
2023/01/09 05:56:10;;;;;;;;;;;21.10;40.40;;;;;;5046455;28;19921;-69
2023/01/09 05:58:37;;;;;;;;;;;21.10;40.50;;;;;;5046752;28;19924;-69
2023/01/09 06:01:05;;;;;;;;;;;21.10;40.40;;;;;;5037040;28;19936;-70
2023/01/09 06:03:33;;;;;;;;;;;21.10;40.40;;;;;;5037865;28;19921;-67
2023/01/09 06:06:00;;;;;;;;;;;21.10;40.40;;;;;;5036877;28;19921;-70
2023/01/09 06:08:27;;;;;;;;;;;21.10;40.40;;;;;;5038618;28;20410;-64
2023/01/09 06:10:54;;;;;;;;;;;21.20;40.40;;;;;;5018246;28;19956;-66
2023/01/09 06:13:21;;;;;;;;;;;21.20;40.50;;;;;;5038595;28;19967;-65
2023/01/09 06:15:48;;;;;;;;;;;21.20;40.50;;;;;;5037943;28;19921;-70
2023/01/09 06:18:15;;;;;;;;;;;21.20;40.50;;;;;;5037687;28;19921;-70
2023/01/09 06:20:45;;;;;;;;;;;21.20;40.40;;;;;;5037033;28;19967;-69
2023/01/09 06:23:12;;;;;;;;;;;21.30;40.50;;;;;;5028865;28;20439;-58
2023/01/09 06:25:39;;;;;;;;;;;21.30;40.40;;;;;;5034380;28;19968;-66
2023/01/09 06:31:39;;;;;;;;;;;21.40;40.60;;;;;;5026423;28;19923;-66
2023/01/09 06:34:06;;;;;;;;;;;21.40;40.60;;;;;;5031052;28;20012;-70
2023/01/09 06:36:33;;;;;;;;;;;21.40;40.60;;;;;;5027137;28;19928;-65
2023/01/09 06:39:00;;;;;;;;;;;21.50;40.70;;;;;;5030298;28;20008;-62
2023/01/09 06:49:02;;;;;;;;;;;21.60;41.10;;;;;;5018788;28;19921;-67
2023/01/09 06:52:26;;;;;;;;;;;21.60;41.10;;;;;;5021611;28;19925;-63
2023/01/09 06:54:52;;;;;;;;;;;21.70;41.10;;;;;;5026227;28;19929;-66
2023/01/09 07:01:05;;;;;;;;;;;21.80;41.20;;;;;;5038808;28;19965;-68
2023/01/09 07:03:32;;;;;;;;;;;21.80;41.10;;;;;;5036296;28;19923;-66
2023/01/09 07:05:59;;;;;;;;;;;21.80;41.00;;;;;;5036279;28;20019;-64
2023/01/09 07:08:26;;;;;;;;;;;21.90;41.00;;;;;;5036074;28;20008;-64
2023/01/09 07:10:53;;;;;;;;;;;21.90;41.10;;;;;;5028775;28;20023;-64
2023/01/09 07:13:20;;;;;;;;;;;21.90;41.10;;;;;;5024790;28;20452;-65
2023/01/09 07:16:17;;;;;;;;;;;21.90;41.10;;;;;;5024409;28;20315;-69
2023/01/09 07:18:53;;;;;;;;;;;22.00;41.10;;;;;;5024832;28;19933;-64
2023/01/09 07:24:43;;;;;;;;;;;22.00;41.30;;;;;;5023346;28;19971;-62
2023/01/09 07:27:10;;;;;;;;;;;22.00;41.30;;;;;;5025404;28;19979;-62
2023/01/09 07:29:46;;;;;;;;;;;22.10;41.40;;;;;;5023458;28;20435;-63
2023/01/09 07:32:20;;;;;;;;;;;22.10;41.40;;;;;;5022549;28;20515;-61
2023/01/09 07:34:50;;;;;;;;;;;22.10;41.30;;;;;;5017497;28;20309;-67
2023/01/09 07:37:17;;;;;;;;;;;22.10;41.20;;;;;;5016440;28;19952;-63
2023/01/09 07:40:13;;;;;;;;;;;22.10;41.10;;;;;;5016123;28;19917;-62
2023/01/09 07:42:47;;;;;;;;;;;22.20;41.10;;;;;;5023664;28;21630;-62
2023/01/09 07:45:14;;;;;;;;;;;22.20;41.10;;;;;;5024527;28;20020;-62
2023/01/09 07:51:03;;;;;;;;;;;22.20;41.00;;;;;;5024938;28;19924;-62
2023/01/09 07:56:50;;;;;;;;;;;22.20;40.90;;;;;;5367746;22;20387;-65
2023/01/09 07:59:18;;;;;;;;;;;22.30;40.90;;;;;;5037908;28;20019;-63
2023/01/09 08:02:28;;;;;;;;;;;22.30;40.90;;;;;;5176205;22;19917;-61
2023/01/09 08:10:13;;;;;;;;;;;22.40;40.90;;;;;;5042628;28;20371;-66
2023/01/09 08:19:46;;;;;;;;;;;22.40;40.90;;;;;;5035680;28;19987;-61
2023/01/09 08:22:13;;;;;;;;;;;22.50;40.90;;;;;;5034086;28;19931;-64
2023/01/09 08:24:40;;;;;;;;;;;22.50;40.80;;;;;;5035343;28;20012;-63
2023/01/09 08:27:07;;;;;;;;;;;22.50;41.40;;;;;;5035519;28;19921;-67
2023/01/09 08:30:10;;;;;;;;;;;22.50;40.70;;;;;;5041077;28;20366;-60
2023/01/09 08:32:49;;;;;;;;;;;22.50;40.80;;;;;;5047608;28;19920;-61
2023/01/09 08:35:24;;;;;;;;;;;22.50;40.80;;;;;;5041849;28;19963;-62
2023/01/09 08:38:16;;;;;;;;;;;22.50;40.90;;;;;;5040696;28;19924;-62
2023/01/09 08:47:10;;;;;;;;;;;22.60;40.90;;;;;;5041076;28;19933;-67
2023/01/09 08:49:37;;;;;;;;;;;22.60;40.90;;;;;;5054911;28;19987;-62
2023/01/09 08:55:48;;;;;;;;;;;22.60;40.90;;;;;;5044243;28;19920;-62
2023/01/09 09:04:59;;;;;;;;;;;22.70;40.90;;;;;;5037550;28;19963;-62
2023/01/09 09:10:49;;;;;;;;;;;22.70;40.70;;;;;;5040633;28;19916;-63
2023/01/09 09:13:15;;;;;;;;;;;22.70;40.70;;;;;;5045186;28;20398;-63
2023/01/09 09:15:50;;;;;;;;;;;22.80;40.80;;;;;;5049575;28;19920;-65
2023/01/09 09:18:18;;;;;;;;;;;22.80;40.90;;;;;;5057983;28;19921;-63
2023/01/09 09:21:05;;;;;;;;;;;22.80;40.90;;;;;;5049761;28;21498;-65
2023/01/09 09:27:59;;;;;;;;;;;22.80;41.00;;;;;;6189404;22;19960;-69
2023/01/09 09:30:52;;;;;;;;;;;22.90;41.00;;;;;;5030077;28;20049;-62
2023/01/09 09:33:21;;;;;;;;;;;22.90;40.90;;;;;;5047235;28;19928;-67
2023/01/09 09:35:47;;;;;;;;;;;22.90;40.80;;;;;;5051820;28;19916;-64
2023/01/09 09:38:14;;;;;;;;;;;22.90;40.80;;;;;;5057658;28;20011;-70
2023/01/09 09:47:50;;;;;;;;;;;23.00;41.00;;;;;;5049630;28;19993;-70
2023/01/09 09:50:23;;;;;;;;;;;23.00;41.00;;;;;;5073758;28;20008;-69
2023/01/09 09:53:10;;;;;;;;;;;23.00;41.00;;;;;;5055162;28;20011;-64
2023/01/09 09:59:02;;;;;;;;;;;23.00;40.90;;;;;;5047248;28;19947;-66
2023/01/09 10:01:37;;;;;;;;;;;23.10;40.80;;;;;;5046941;28;19916;-64
2023/01/09 10:04:06;;;;;;;;;;;23.10;40.80;;;;;;5056951;28;19917;-70
2023/01/09 10:06:35;;;;;;;;;;;23.10;40.70;;;;;;5057074;28;20368;-63
2023/01/09 10:09:23;;;;;;;;;;;23.10;40.70;;;;;;5056772;28;19955;-66
2023/01/09 10:12:10;;;;;;;;;;;23.20;40.60;;;;;;5056747;28;19920;-64
2023/01/09 10:14:37;;;;;;;;;;;23.20;40.50;;;;;;5056724;28;19928;-64
2023/01/09 10:17:20;;;;;;;;;;;23.30;40.40;;;;;;5056267;28;20332;-65
2023/01/09 10:20:02;;;;;;;;;;;23.30;40.30;;;;;;5049963;28;19926;-65
2023/01/09 10:33:06;;;;;;;;;;;23.40;40.30;;;;;;5072160;28;19999;-66
2023/01/09 10:35:53;;;;;;;;;;;23.40;40.30;;;;;;5076403;28;19931;-64
2023/01/09 10:38:23;;;;;;;;;;;23.40;40.30;;;;;;5076148;28;19983;-69
2023/01/09 10:40:56;;;;;;;;;;;23.40;40.20;;;;;;5076387;28;20005;-65
2023/01/09 10:43:52;;;;;;;;;;;23.40;40.20;;;;;;5076487;28;19922;-68
2023/01/09 10:46:24;;;;;;;;;;;23.40;40.20;;;;;;5076732;28;19974;-68
2023/01/09 10:48:55;;;;;;;;;;;23.40;40.20;;;;;;5079534;28;20421;-69
2023/01/09 10:51:30;;;;;;;;;;;23.50;40.20;;;;;;5074272;28;19928;-61
2023/01/09 10:53:57;;;;;;;;;;;23.50;40.20;;;;;;5048283;28;20011;-63
2023/01/09 10:56:25;;;;;;;;;;;23.50;40.20;;;;;;5045744;28;19928;-60
2023/01/09 10:58:53;;;;;;;;;;;23.50;40.20;;;;;;5066170;28;19924;-63
2023/01/09 11:01:26;;;;;;;;;;;23.60;40.20;;;;;;5069742;28;20278;-67
2023/01/09 11:03:53;;;;;;;;;;;23.60;40.20;;;;;;5064811;28;19928;-67
2023/01/09 11:06:22;;;;;;;;;;;23.60;40.30;;;;;;5061979;28;20011;-65
2023/01/09 11:08:49;;;;;;;;;;;23.60;40.20;;;;;;5067306;28;19955;-64
2023/01/09 11:11:30;;;;;;;;;;;23.60;40.20;;;;;;5066412;28;20003;-65
2023/01/09 11:14:03;;;;;;;;;;;23.70;40.20;;;;;;5070168;28;19966;-66
2023/01/09 11:16:30;;;;;;;;;;;23.70;40.20;;;;;;5045088;28;20015;-65
2023/01/09 11:18:59;;;;;;;;;;;23.70;40.10;;;;;;5066283;28;19927;-65
2023/01/09 11:21:31;;;;;;;;;;;23.70;40.10;;;;;;5065512;28;20375;-65
2023/01/09 11:24:18;;;;;;;;;;;23.70;40.00;;;;;;5064742;28;19920;-64
2023/01/09 11:26:45;;;;;;;;;;;23.70;40.00;;;;;;5067199;28;20006;-65
2023/01/09 11:29:14;;;;;;;;;;;23.70;40.00;;;;;;5067440;28;19928;-66
2023/01/09 11:31:42;;;;;;;;;;;23.70;40.00;;;;;;5065652;28;19971;-65
2023/01/09 11:34:14;;;;;;;;;;;23.70;40.00;;;;;;5063687;28;20040;-65
2023/01/09 11:36:41;;;;;;;;;;;23.70;40.00;;;;;;5068591;28;19974;-66
2023/01/09 11:39:20;;;;;;;;;;;23.70;40.00;;;;;;5066071;28;20279;-65
2023/01/09 11:41:51;;;;;;;;;;;23.60;40.00;;;;;;5066444;28;20340;-65
2023/01/09 11:44:18;;;;;;;;;;;23.70;40.00;;;;;;5065812;28;19928;-64
2023/01/09 11:46:45;;;;;;;;;;;23.60;40.00;;;;;;5063091;28;19955;-64
2023/01/09 11:49:23;;;;;;;;;;;23.60;39.90;;;;;;5064816;28;20264;-64
2023/01/09 11:52:10;;;;;;;;;;;23.60;39.90;;;;;;5063884;28;19928;-63
2023/01/09 11:54:38;;;;;;;;;;;23.60;39.90;;;;;;5059501;28;19928;-64
2023/01/09 11:57:07;;;;;;;;;;;23.60;40.00;;;;;;5057602;28;19928;-65
2023/01/09 11:59:34;;;;;;;;;;;23.60;40.00;;;;;;5058469;28;19939;-65
2023/01/09 12:02:21;;;;;;;;;;;23.60;40.00;;;;;;5043996;28;20023;-63
2023/01/09 12:04:58;;;;;;;;;;;23.60;40.00;;;;;;5050847;28;19928;-64
2023/01/09 12:07:44;;;;;;;;;;;23.60;40.00;;;;;;5062724;28;19939;-64
2023/01/09 12:10:31;;;;;;;;;;;23.60;40.00;;;;;;5047021;28;19939;-63
2023/01/09 12:13:05;;;;;;;;;;;23.70;40.00;;;;;;5052777;28;19928;-63
2023/01/09 12:15:38;;;;;;;;;;;23.70;39.90;;;;;;5058289;28;19920;-63
2023/01/09 12:18:14;;;;;;;;;;;23.70;39.80;;;;;;5064488;28;20007;-64
2023/01/09 12:21:01;;;;;;;;;;;23.70;39.80;;;;;;5064304;28;20003;-64
2023/01/09 12:23:40;;;;;;;;;;;23.70;39.70;;;;;;5064223;28;20031;-64
2023/01/09 12:26:19;;;;;;;;;;;23.70;39.70;;;;;;5059158;28;20439;-65
2023/01/09 12:29:06;;;;;;;;;;;23.70;39.70;;;;;;5042670;28;20054;-63
2023/01/09 12:31:40;;;;;;;;;;;23.70;39.70;;;;;;5064390;28;20826;-66
2023/01/09 12:34:24;;;;;;;;;;;23.70;39.70;;;;;;5061850;28;20016;-66
2023/01/09 12:37:04;;;;;;;;;;;23.70;39.70;;;;;;5061281;28;19928;-63
2023/01/09 12:39:48;;;;;;;;;;;23.70;39.70;;;;;;5066343;28;19927;-64
2023/01/09 12:42:22;;;;;;;;;;;23.70;39.70;;;;;;5067268;28;19924;-62
2023/01/09 12:44:53;;;;;;;;;;;23.70;39.70;;;;;;5061306;28;19967;-63
2023/01/09 12:47:30;;;;;;;;;;;23.70;39.70;;;;;;5063817;28;20035;-63
2023/01/09 12:50:17;;;;;;;;;;;23.70;39.70;;;;;;5068964;28;19950;-64
2023/01/09 12:53:04;;;;;;;;;;;23.70;39.70;;;;;;5054856;28;19920;-65
2023/01/09 12:55:33;;;;;;;;;;;23.70;39.70;;;;;;5068623;28;19925;-64
2023/01/09 12:58:05;;;;;;;;;;;23.70;39.70;;;;;;5063746;28;19939;-65
2023/01/09 13:00:41;;;;;;;;;;;23.70;39.70;;;;;;5061063;28;19934;-63
2023/01/09 13:03:24;;;;;;;;;;;23.70;39.70;;;;;;5067375;28;19932;-63
2023/01/09 13:05:52;;;;;;;;;;;23.70;39.70;;;;;;5064744;28;20344;-64
2023/01/09 13:08:22;;;;;;;;;;;23.70;39.70;;;;;;5067468;28;20303;-64
2023/01/09 13:10:54;;;;;;;;;;;23.70;39.80;;;;;;5066496;28;19928;-63
2023/01/09 13:13:25;;;;;;;;;;;23.70;39.90;;;;;;5067008;28;19928;-63
2023/01/09 13:15:54;;;;;;;;;;;23.60;39.90;;;;;;5068593;28;20118;-66
2023/01/09 13:18:32;;;;;;;;;;;23.70;40.00;;;;;;5068159;28;20031;-65
2023/01/09 13:21:00;;;;;;;;;;;23.70;40.20;;;;;;5063940;28;20008;-64
2023/01/09 13:23:47;;;;;;;;;;;23.70;40.20;;;;;;5065922;28;19920;-63
2023/01/09 13:26:21;;;;;;;;;;;23.70;40.20;;;;;;5066311;28;19959;-64
2023/01/09 13:28:52;;;;;;;;;;;23.70;40.10;;;;;;5063612;28;21845;-64
2023/01/09 13:31:39;;;;;;;;;;;23.70;40.10;;;;;;5065909;28;19924;-64
2023/01/09 13:34:11;;;;;;;;;;;23.80;40.20;;;;;;5049680;28;20642;-63
2023/01/09 13:36:49;;;;;;;;;;;23.80;40.00;;;;;;5064526;28;19928;-68
2023/01/09 13:39:20;;;;;;;;;;;23.80;40.00;;;;;;5068912;28;19982;-64
2023/01/09 13:44:38;;;;;;;;;;;23.90;39.90;;;;;;5065852;28;19920;-64
2023/01/09 13:47:13;;;;;;;;;;;23.90;39.90;;;;;;5066292;28;19928;-65
2023/01/09 13:50:00;;;;;;;;;;;23.90;39.90;;;;;;5068431;28;20010;-64
2023/01/09 13:52:29;;;;;;;;;;;23.90;40.00;;;;;;5064235;28;19954;-63
2023/01/09 13:54:59;;;;;;;;;;;23.90;40.00;;;;;;5064522;28;19963;-63
2023/01/09 13:57:31;;;;;;;;;;;23.90;40.00;;;;;;5062076;28;19928;-64
2023/01/09 14:00:18;;;;;;;;;;;23.90;40.00;;;;;;5066106;28;20007;-63
2023/01/09 14:02:53;;;;;;;;;;;23.90;40.00;;;;;;5064876;28;19952;-65
2023/01/09 14:05:40;;;;;;;;;;;23.90;40.00;;;;;;5065918;28;19951;-64
2023/01/09 14:08:12;;;;;;;;;;;23.90;40.10;;;;;;5053381;28;19924;-62
2023/01/09 14:10:46;;;;;;;;;;;23.90;40.10;;;;;;5066080;28;19927;-63
2023/01/09 14:13:16;;;;;;;;;;;23.90;40.30;;;;;;5063101;28;19928;-64
2023/01/09 14:15:45;;;;;;;;;;;23.90;40.20;;;;;;5065968;28;20369;-64
2023/01/09 14:18:17;;;;;;;;;;;23.90;40.20;;;;;;5063831;28;20015;-63
2023/01/09 14:21:04;;;;;;;;;;;23.90;40.20;;;;;;5064904;28;19923;-61
2023/01/09 14:23:38;;;;;;;;;;;23.90;40.30;;;;;;5062766;28;19927;-62
2023/01/09 14:26:20;;;;;;;;;;;23.80;40.30;;;;;;5064144;28;19955;-62
2023/01/09 14:28:47;;;;;;;;;;;23.80;40.30;;;;;;5067995;28;20403;-63
2023/01/09 14:31:29;;;;;;;;;;;23.80;40.30;;;;;;5061100;28;20015;-63
2023/01/09 14:34:16;;;;;;;;;;;23.80;40.30;;;;;;5065624;28;19927;-63
2023/01/09 14:36:59;;;;;;;;;;;23.80;40.40;;;;;;5067149;28;20371;-62
2023/01/09 14:39:28;;;;;;;;;;;23.80;40.40;;;;;;5064504;28;20290;-60
2023/01/09 14:41:57;;;;;;;;;;;23.70;40.40;;;;;;5065053;28;19959;-63
2023/01/09 14:44:43;;;;;;;;;;;23.70;40.40;;;;;;5063288;28;19998;-63
2023/01/09 14:47:31;;;;;;;;;;;23.70;40.40;;;;;;5060088;28;20379;-64
2023/01/09 14:50:17;;;;;;;;;;;23.70;40.50;;;;;;5057710;28;20011;-62
2023/01/09 14:52:54;;;;;;;;;;;23.70;40.50;;;;;;5045361;28;20685;-61
2023/01/09 14:55:41;;;;;;;;;;;23.60;40.50;;;;;;5063608;28;21186;-63
2023/01/09 14:58:11;;;;;;;;;;;23.60;40.50;;;;;;5063897;28;19924;-63
2023/01/09 15:00:46;;;;;;;;;;;23.60;40.60;;;;;;5045944;28;19927;-62
2023/01/09 15:03:13;;;;;;;;;;;23.60;40.70;;;;;;5060091;28;19928;-62
2023/01/09 15:05:42;;;;;;;;;;;23.60;40.70;;;;;;5067366;28;19939;-62
2023/01/09 15:08:11;;;;;;;;;;;23.60;40.80;;;;;;5063332;28;19968;-63
2023/01/09 15:10:42;;;;;;;;;;;23.60;40.90;;;;;;5066208;28;20346;-64
2023/01/09 15:13:15;;;;;;;;;;;23.60;41.20;;;;;;5066548;28;20031;-60
2023/01/09 15:15:46;;;;;;;;;;;23.60;41.40;;;;;;5065529;28;19920;-65
2023/01/09 15:18:19;;;;;;;;;;;23.60;41.60;;;;;;5047864;28;20038;-63
2023/01/09 15:20:50;;;;;;;;;;;23.60;41.80;;;;;;5066833;28;19920;-63
2023/01/09 15:23:24;;;;;;;;;;;23.60;41.80;;;;;;5067590;28;20249;-62
2023/01/09 15:25:51;;;;;;;;;;;23.60;41.80;;;;;;5065665;28;19928;-64
2023/01/09 15:28:21;;;;;;;;;;;23.60;41.80;;;;;;5065452;28;19924;-62
2023/01/09 15:30:58;;;;;;;;;;;23.50;41.90;;;;;;5065226;28;20333;-62
2023/01/09 15:33:25;;;;;;;;;;;23.50;42.10;;;;;;5066965;28;20017;-65
2023/01/09 15:35:58;;;;;;;;;;;23.50;42.10;;;;;;5067762;28;20012;-65
2023/01/09 15:38:27;;;;;;;;;;;23.50;42.70;;;;;;5069486;28;19921;-66
2023/01/09 15:41:03;;;;;;;;;;;23.50;42.10;;;;;;5068016;28;19920;-67
2023/01/09 15:43:30;;;;;;;;;;;23.40;41.90;;;;;;5069955;28;19921;-67
2023/01/09 15:45:57;;;;;;;;;;;23.40;42.00;;;;;;5069512;28;20315;-68
2023/01/09 15:48:29;;;;;;;;;;;23.40;42.00;;;;;;5067230;28;20015;-70
2023/01/09 15:51:10;;;;;;;;;;;23.40;42.00;;;;;;5068868;28;19924;-69
2023/01/09 15:53:41;;;;;;;;;;;23.40;42.10;;;;;;5068765;28;19920;-70
2023/01/09 15:56:18;;;;;;;;;;;23.30;42.20;;;;;;5068874;28;19924;-72
2023/01/09 15:58:47;;;;;;;;;;;23.30;42.30;;;;;;5069511;28;20322;-66
2023/01/09 16:01:21;;;;;;;;;;;23.30;42.40;;;;;;5066078;28;19924;-66
2023/01/09 16:03:49;;;;;;;;;;;23.30;42.60;;;;;;5068185;28;19963;-71
2023/01/09 16:06:24;;;;;;;;;;;23.30;42.70;;;;;;5068954;28;20248;-71
2023/01/09 16:08:54;;;;;;;;;;;23.30;43.00;;;;;;5074209;28;19920;-71
2023/01/09 16:11:27;;;;;;;;;;;23.30;43.20;;;;;;5068917;28;19926;-70
2023/01/09 16:13:55;;;;;;;;;;;23.20;43.40;;;;;;5070573;28;20447;-71